createdAt,value
2018-07-02T00:00:23.002Z,20.85
2018-07-02T00:01:22.974Z,20.83
2018-07-02T00:02:26.748Z,20.76
2018-07-02T00:03:23.042Z,20.78
2018-07-02T00:04:22.881Z,20.74
2018-07-02T00:05:22.999Z,20.74
2018-07-02T00:06:26.739Z,20.73
2018-07-02T00:07:22.936Z,20.74
2018-07-02T00:08:22.926Z,20.72
2018-07-02T00:09:23.055Z,20.75
2018-07-02T00:10:26.083Z,20.64
2018-07-02T00:11:22.979Z,20.65
2018-07-02T00:12:23.037Z,20.67
2018-07-02T00:13:22.986Z,20.67
2018-07-02T00:14:23.042Z,20.67
2018-07-02T00:15:22.900Z,20.68
2018-07-02T00:16:22.967Z,20.67
2018-07-02T00:17:23.017Z,20.64
2018-07-02T00:18:22.963Z,20.62
2018-07-02T00:19:27.479Z,20.63
2018-07-02T00:20:22.981Z,20.62
2018-07-02T00:21:22.948Z,20.62
2018-07-02T00:22:22.958Z,20.6
2018-07-02T00:23:26.449Z,20.56
2018-07-02T00:24:22.908Z,20.51
2018-07-02T00:25:23.094Z,20.48
2018-07-02T00:26:23.142Z,20.49
2018-07-02T00:27:27.010Z,20.48
2018-07-02T00:28:23.062Z,20.47
2018-07-02T00:29:23.027Z,20.45
2018-07-02T00:30:23.126Z,20.41
2018-07-02T00:31:27.001Z,20.36
2018-07-02T00:32:23.628Z,20.38
2018-07-02T00:33:22.990Z,20.34
2018-07-02T00:34:22.986Z,20.35
2018-07-02T00:35:26.161Z,20.34
2018-07-02T00:36:23.050Z,20.29
2018-07-02T00:37:23.021Z,20.29
2018-07-02T00:38:25.932Z,20.29
2018-07-02T00:39:23.038Z,20.3
2018-07-02T00:40:27.264Z,20.3
2018-07-02T00:41:22.971Z,20.31
2018-07-02T00:42:23.045Z,20.3
2018-07-02T00:43:23.060Z,20.29
2018-07-02T00:44:22.996Z,20.28
2018-07-02T00:45:23.535Z,20.22
2018-07-02T00:46:23.049Z,20.22
2018-07-02T00:47:23.225Z,20.2
2018-07-02T00:48:22.988Z,20.17
2018-07-02T00:49:23.221Z,20.12
2018-07-02T00:50:22.996Z,20.12
2018-07-02T00:51:23.029Z,20.1
2018-07-02T00:52:23.009Z,20.09
2018-07-02T00:53:29.520Z,20.09
2018-07-02T00:54:23.607Z,20.11
2018-07-02T00:55:23.038Z,20.1
2018-07-02T00:56:23.781Z,20.04
2018-07-02T00:57:28.521Z,20.02
2018-07-02T00:58:23.928Z,19.98
2018-07-02T00:59:22.960Z,19.97
2018-07-02T01:00:27.716Z,19.91
2018-07-02T01:01:23.366Z,19.92
2018-07-02T01:02:23.022Z,19.9
2018-07-02T01:03:23.131Z,19.88
2018-07-02T01:04:23.136Z,19.91
2018-07-02T01:05:23.094Z,19.93
2018-07-02T01:06:24.031Z,19.87
2018-07-02T01:07:26.635Z,19.85
2018-07-02T01:08:24.531Z,19.86
2018-07-02T01:09:23.007Z,19.85
2018-07-02T01:10:24.520Z,19.84
2018-07-02T01:11:23.888Z,19.82
2018-07-02T01:12:22.986Z,19.82
2018-07-02T01:13:23.007Z,19.85
2018-07-02T01:14:23.036Z,19.86
2018-07-02T01:15:26.213Z,19.86
2018-07-02T01:16:23.020Z,19.84
2018-07-02T01:17:22.996Z,19.82
2018-07-02T01:18:23.128Z,19.84
2018-07-02T01:19:23.111Z,19.79
2018-07-02T01:20:22.953Z,19.8
2018-07-02T01:21:23.105Z,19.81
2018-07-02T01:22:23.020Z,19.77
2018-07-02T01:23:24.802Z,19.76
2018-07-02T01:24:24.602Z,19.74
2018-07-02T01:25:23.110Z,19.66
2018-07-02T01:26:27.242Z,19.65
2018-07-02T01:27:23.032Z,19.6
2018-07-02T01:28:23.084Z,19.64
2018-07-02T01:29:26.173Z,19.66
2018-07-02T01:30:23.035Z,19.54
2018-07-02T01:31:22.986Z,19.54
2018-07-02T01:32:27.169Z,19.54
2018-07-02T01:33:26.413Z,19.5
2018-07-02T01:34:26.895Z,19.54
2018-07-02T01:35:23.002Z,19.56
2018-07-02T01:36:27.305Z,19.51
2018-07-02T01:37:28.604Z,19.54
2018-07-02T01:38:23.073Z,19.5
2018-07-02T01:39:27.055Z,19.5
2018-07-02T01:40:23.046Z,19.51
2018-07-02T01:41:23.052Z,19.5
2018-07-02T01:42:22.954Z,19.47
2018-07-02T01:43:23.066Z,19.44
2018-07-02T01:44:23.341Z,19.42
2018-07-02T01:45:27.137Z,19.4
2018-07-02T01:46:23.080Z,19.37
2018-07-02T01:47:23.025Z,19.38
2018-07-02T01:48:26.720Z,19.38
2018-07-02T01:49:23.078Z,19.38
2018-07-02T01:50:23.008Z,19.39
2018-07-02T01:51:26.736Z,19.39
2018-07-02T01:52:23.118Z,19.38
2018-07-02T01:53:23.091Z,19.34
2018-07-02T01:54:23.266Z,19.26
2018-07-02T01:55:22.997Z,19.29
2018-07-02T01:56:23.046Z,19.29
2018-07-02T01:57:22.993Z,19.25
2018-07-02T01:58:27.770Z,19.27
2018-07-02T01:59:23.112Z,19.2
2018-07-02T02:00:23.015Z,19.21
2018-07-02T02:01:23.032Z,19.19
2018-07-02T02:02:27.330Z,19.2
2018-07-02T02:03:23.022Z,19.18
2018-07-02T02:04:23.037Z,19.2
2018-07-02T02:05:22.981Z,19.16
2018-07-02T02:06:24.044Z,19.19
2018-07-02T02:07:23.019Z,19.18
2018-07-02T02:08:22.974Z,19.09
2018-07-02T02:09:22.974Z,19.08
2018-07-02T02:10:22.961Z,19.1
2018-07-02T02:11:23.004Z,19.11
2018-07-02T02:12:23.054Z,19.04
2018-07-02T02:13:23.061Z,18.99
2018-07-02T02:14:22.995Z,18.96
2018-07-02T02:15:24.441Z,18.98
2018-07-02T02:16:22.963Z,18.98
2018-07-02T02:17:22.954Z,19
2018-07-02T02:18:23.045Z,18.98
2018-07-02T02:19:22.991Z,18.96
2018-07-02T02:20:23.045Z,18.95
2018-07-02T02:21:23.101Z,18.95
2018-07-02T02:22:23.109Z,18.91
2018-07-02T02:23:26.958Z,18.91
2018-07-02T02:24:23.144Z,18.9
2018-07-02T02:25:22.994Z,18.89
2018-07-02T02:26:23.004Z,18.88
2018-07-02T02:27:26.782Z,18.81
2018-07-02T02:28:23.000Z,18.83
2018-07-02T02:29:23.057Z,18.82
2018-07-02T02:30:23.022Z,18.77
2018-07-02T02:31:27.321Z,18.79
2018-07-02T02:32:23.131Z,18.75
2018-07-02T02:33:22.971Z,18.74
2018-07-02T02:34:23.045Z,18.77
2018-07-02T02:35:24.247Z,18.79
2018-07-02T02:36:23.047Z,18.77
2018-07-02T02:37:23.107Z,18.73
2018-07-02T02:38:24.196Z,18.72
2018-07-02T02:39:23.385Z,18.74
2018-07-02T02:40:23.135Z,18.68
2018-07-02T02:41:23.090Z,18.5
2018-07-02T02:42:23.053Z,18.56
2018-07-02T02:43:23.214Z,18.47
2018-07-02T02:44:23.001Z,18.49
2018-07-02T02:45:23.064Z,18.48
2018-07-02T02:46:23.056Z,18.49
2018-07-02T02:47:23.046Z,18.48
2018-07-02T02:48:22.992Z,18.49
2018-07-02T02:49:23.034Z,18.48
2018-07-02T02:50:23.022Z,18.5
2018-07-02T02:51:23.115Z,18.52
2018-07-02T02:52:23.018Z,18.49
2018-07-02T02:53:23.014Z,18.47
2018-07-02T02:54:23.055Z,18.25
2018-07-02T02:55:23.085Z,18.31
2018-07-02T02:56:23.015Z,18.27
2018-07-02T02:57:23.045Z,18.27
2018-07-02T02:58:22.995Z,18.18
2018-07-02T02:59:23.098Z,18.17
2018-07-02T03:00:27.227Z,18.21
2018-07-02T03:01:23.116Z,18.25
2018-07-02T03:02:23.042Z,18.24
2018-07-02T03:03:23.010Z,18.25
2018-07-02T03:04:26.987Z,18.26
2018-07-02T03:05:23.047Z,18.24
2018-07-02T03:06:23.057Z,18.24
2018-07-02T03:07:23.021Z,18.23
2018-07-02T03:08:23.079Z,18.17
2018-07-02T03:09:24.302Z,18.22
2018-07-02T03:10:23.072Z,18.17
2018-07-02T03:11:23.348Z,18.16
2018-07-02T03:12:23.062Z,18.16
2018-07-02T03:13:26.373Z,18.19
2018-07-02T03:14:23.118Z,18.2
2018-07-02T03:15:23.125Z,18.16
2018-07-02T03:16:23.102Z,18.18
2018-07-02T03:17:27.234Z,18.16
2018-07-02T03:18:23.234Z,18.14
2018-07-02T03:19:23.031Z,18.09
2018-07-02T03:20:24.013Z,18.07
2018-07-02T03:21:26.645Z,18.11
2018-07-02T03:22:23.101Z,18.1
2018-07-02T03:23:23.337Z,18.08
2018-07-02T03:24:23.086Z,18.09
2018-07-02T03:25:24.301Z,17.98
2018-07-02T03:26:23.049Z,18.03
2018-07-02T03:27:23.160Z,18
2018-07-02T03:28:23.185Z,17.99
2018-07-02T03:29:24.730Z,18.02
2018-07-02T03:30:23.224Z,18.02
2018-07-02T03:31:23.255Z,18
2018-07-02T03:32:23.256Z,18
2018-07-02T03:33:23.959Z,18.01
2018-07-02T03:34:23.085Z,18.03
2018-07-02T03:35:23.103Z,18.03
2018-07-02T03:36:23.095Z,17.97
2018-07-02T03:37:26.709Z,17.94
2018-07-02T03:38:23.063Z,17.88
2018-07-02T03:39:23.132Z,17.93
2018-07-02T03:40:23.126Z,17.94
2018-07-02T03:41:27.100Z,17.91
2018-07-02T03:42:23.062Z,17.9
2018-07-02T03:43:23.086Z,17.89
2018-07-02T03:44:27.217Z,17.92
2018-07-02T03:45:27.342Z,17.96
2018-07-02T03:46:23.091Z,17.92
2018-07-02T03:47:23.280Z,17.84
2018-07-02T03:48:23.131Z,17.89
2018-07-02T03:49:26.069Z,17.9
2018-07-02T03:50:23.100Z,17.84
2018-07-02T03:51:23.106Z,17.83
2018-07-02T03:52:23.324Z,17.85
2018-07-02T03:53:26.422Z,17.86
2018-07-02T03:54:23.139Z,17.85
2018-07-02T03:55:23.182Z,17.86
2018-07-02T03:56:23.146Z,17.89
2018-07-02T03:57:26.380Z,17.88
2018-07-02T03:58:23.172Z,17.87
2018-07-02T03:59:23.129Z,17.86
2018-07-02T04:00:23.105Z,17.84
2018-07-02T04:01:27.390Z,17.85
2018-07-02T04:02:23.104Z,17.85
2018-07-02T04:03:23.156Z,17.86
2018-07-02T04:04:23.127Z,17.85
2018-07-02T04:05:26.903Z,17.83
2018-07-02T04:06:23.114Z,17.82
2018-07-02T04:07:23.106Z,17.78
2018-07-02T04:08:23.117Z,17.78
2018-07-02T04:09:27.005Z,17.79
2018-07-02T04:10:23.092Z,17.72
2018-07-02T04:11:23.144Z,17.76
2018-07-02T04:12:23.133Z,17.77
2018-07-02T04:13:27.863Z,17.8
2018-07-02T04:14:23.149Z,17.81
2018-07-02T04:15:23.166Z,17.83
2018-07-02T04:16:26.896Z,17.79
2018-07-02T04:17:23.158Z,17.77
2018-07-02T04:18:28.173Z,17.79
2018-07-02T04:19:28.309Z,17.8
2018-07-02T04:20:25.140Z,17.79
2018-07-02T04:21:26.869Z,17.81
2018-07-02T04:22:23.315Z,17.8
2018-07-02T04:23:27.318Z,17.78
2018-07-02T04:24:23.133Z,17.76
2018-07-02T04:25:27.338Z,17.79
2018-07-02T04:26:23.206Z,17.75
2018-07-02T04:27:23.224Z,17.77
2018-07-02T04:28:25.989Z,17.78
2018-07-02T04:29:23.168Z,17.78
2018-07-02T04:30:23.290Z,17.79
2018-07-02T04:31:23.182Z,17.84
2018-07-02T04:32:23.265Z,17.81
2018-07-02T04:33:23.251Z,17.82
2018-07-02T04:34:23.300Z,17.85
2018-07-02T04:35:23.202Z,17.81
2018-07-02T04:36:23.247Z,17.79
2018-07-02T04:37:23.223Z,17.81
2018-07-02T04:38:23.367Z,17.77
2018-07-02T04:39:23.326Z,17.72
2018-07-02T04:40:31.221Z,17.76
2018-07-02T04:41:27.342Z,17.78
2018-07-02T04:42:23.291Z,17.8
2018-07-02T04:43:27.234Z,17.81
2018-07-02T04:44:27.573Z,17.79
2018-07-02T04:45:27.281Z,17.81
2018-07-02T04:46:23.435Z,17.75
2018-07-02T04:47:32.377Z,17.78
2018-07-02T04:48:28.978Z,17.81
2018-07-02T04:49:27.759Z,17.81
2018-07-02T04:50:27.386Z,17.83
2018-07-02T04:51:27.342Z,17.82
2018-07-02T04:52:27.462Z,17.85
2018-07-02T04:53:23.290Z,17.84
2018-07-02T04:54:28.397Z,17.84
2018-07-02T04:55:27.642Z,17.84
2018-07-02T04:56:28.389Z,17.85
2018-07-02T04:57:24.392Z,17.87
2018-07-02T04:58:28.475Z,17.89
2018-07-02T04:59:23.311Z,17.83
2018-07-02T05:00:23.155Z,17.78
2018-07-02T05:01:23.115Z,17.78
2018-07-02T05:02:23.157Z,17.79
2018-07-02T05:03:23.123Z,17.81
2018-07-02T05:04:23.129Z,17.83
2018-07-02T05:05:23.133Z,17.85
2018-07-02T05:06:23.108Z,17.87
2018-07-02T05:07:23.173Z,17.85
2018-07-02T05:08:23.381Z,17.87
2018-07-02T05:09:23.143Z,17.87
2018-07-02T05:10:23.165Z,17.87
2018-07-02T05:11:23.125Z,17.87
2018-07-02T05:12:23.176Z,17.88
2018-07-02T05:13:23.068Z,17.89
2018-07-02T05:14:23.817Z,17.89
2018-07-02T05:15:23.085Z,17.87
2018-07-02T05:16:23.088Z,17.91
2018-07-02T05:17:23.056Z,17.91
2018-07-02T05:18:23.370Z,17.9
2018-07-02T05:19:23.271Z,17.91
2018-07-02T05:20:23.112Z,17.91
2018-07-02T05:21:23.120Z,17.92
2018-07-02T05:22:24.463Z,17.95
2018-07-02T05:23:23.057Z,17.96
2018-07-02T05:24:23.104Z,17.97
2018-07-02T05:25:23.117Z,17.88
2018-07-02T05:26:23.114Z,17.9
2018-07-02T05:27:23.108Z,17.93
2018-07-02T05:28:23.117Z,17.93
2018-07-02T05:29:23.140Z,17.92
2018-07-02T05:30:23.083Z,17.97
2018-07-02T05:31:23.481Z,18
2018-07-02T05:32:23.116Z,18.03
2018-07-02T05:33:23.106Z,17.98
2018-07-02T05:34:23.133Z,18.03
2018-07-02T05:35:23.319Z,18.02
2018-07-02T05:36:23.095Z,18.05
2018-07-02T05:37:23.140Z,18.04
2018-07-02T05:38:23.101Z,18.07
2018-07-02T05:39:23.140Z,18.03
2018-07-02T05:40:23.370Z,18.01
2018-07-02T05:41:23.399Z,18.02
2018-07-02T05:42:23.166Z,18
2018-07-02T05:43:23.221Z,18.06
2018-07-02T05:44:23.206Z,18.12
2018-07-02T05:45:23.104Z,18.12
2018-07-02T05:46:23.096Z,18.14
2018-07-02T05:47:23.111Z,18.15
2018-07-02T05:48:23.121Z,18.18
2018-07-02T05:49:23.197Z,18.23
2018-07-02T05:50:23.146Z,18.28
2018-07-02T05:51:23.127Z,18.24
2018-07-02T05:52:23.417Z,18.25
2018-07-02T05:53:23.102Z,18.28
2018-07-02T05:54:23.131Z,18.32
2018-07-02T05:55:23.130Z,18.35
2018-07-02T05:56:23.109Z,18.35
2018-07-02T05:57:23.144Z,18.34
2018-07-02T05:58:23.384Z,18.38
2018-07-02T05:59:23.107Z,18.41
2018-07-02T06:00:25.028Z,18.46
2018-07-02T06:01:23.140Z,18.47
2018-07-02T06:02:23.136Z,18.43
2018-07-02T06:03:23.202Z,18.5
2018-07-02T06:04:23.137Z,18.49
2018-07-02T06:05:23.125Z,18.51
2018-07-02T06:06:23.127Z,18.53
2018-07-02T06:07:23.222Z,18.37
2018-07-02T06:08:23.118Z,18.43
2018-07-02T06:09:23.226Z,18.46
2018-07-02T06:10:23.492Z,18.5
2018-07-02T06:11:23.167Z,18.54
2018-07-02T06:12:23.384Z,18.54
2018-07-02T06:13:23.322Z,18.55
2018-07-02T06:14:23.161Z,18.54
2018-07-02T06:15:23.098Z,18.61
2018-07-02T06:16:24.637Z,18.65
2018-07-02T06:17:23.131Z,18.66
2018-07-02T06:18:23.186Z,18.71
2018-07-02T06:19:23.145Z,18.71
2018-07-02T06:20:23.175Z,18.72
2018-07-02T06:21:23.161Z,18.72
2018-07-02T06:22:23.375Z,18.73
2018-07-02T06:23:23.465Z,18.77
2018-07-02T06:24:23.155Z,18.82
2018-07-02T06:25:23.236Z,18.84
2018-07-02T06:26:23.164Z,18.87
2018-07-02T06:27:23.222Z,18.91
2018-07-02T06:28:23.168Z,18.94
2018-07-02T06:29:23.364Z,18.93
2018-07-02T06:30:23.677Z,18.93
2018-07-02T06:31:23.164Z,18.99
2018-07-02T06:32:23.690Z,18.98
2018-07-02T06:33:23.151Z,19.03
2018-07-02T06:34:23.220Z,19.02
2018-07-02T06:35:23.168Z,19.05
2018-07-02T06:36:23.158Z,19.08
2018-07-02T06:37:23.177Z,19.13
2018-07-02T06:38:23.166Z,19.13
2018-07-02T06:39:23.231Z,19.12
2018-07-02T06:40:23.159Z,19.15
2018-07-02T06:41:23.268Z,19.16
2018-07-02T06:42:23.170Z,19.17
2018-07-02T06:43:23.173Z,19.2
2018-07-02T06:44:23.151Z,19.21
2018-07-02T06:45:23.190Z,19.23
2018-07-02T06:46:23.179Z,19.23
2018-07-02T06:47:23.417Z,19.22
2018-07-02T06:48:23.558Z,19.24
2018-07-02T06:49:23.190Z,19.26
2018-07-02T06:50:23.377Z,19.3
2018-07-02T06:51:23.237Z,19.32
2018-07-02T06:52:23.215Z,19.37
2018-07-02T06:53:23.237Z,19.38
2018-07-02T06:54:23.233Z,19.45
2018-07-02T06:55:23.305Z,19.48
2018-07-02T06:56:23.220Z,19.52
2018-07-02T06:57:23.359Z,19.56
2018-07-02T06:58:23.214Z,19.58
2018-07-02T06:59:23.221Z,19.63
2018-07-02T07:00:23.178Z,19.67
2018-07-02T07:01:23.280Z,19.7
2018-07-02T07:02:23.223Z,19.74
2018-07-02T07:03:23.223Z,19.75
2018-07-02T07:04:23.203Z,19.78
2018-07-02T07:05:23.197Z,19.82
2018-07-02T07:06:23.279Z,19.85
2018-07-02T07:07:23.255Z,19.88
2018-07-02T07:08:23.180Z,19.89
2018-07-02T07:09:23.261Z,19.91
2018-07-02T07:10:23.170Z,19.9
2018-07-02T07:11:23.189Z,19.91
2018-07-02T07:12:23.217Z,19.85
2018-07-02T07:13:23.214Z,19.87
2018-07-02T07:14:23.207Z,19.92
2018-07-02T07:15:23.205Z,19.84
2018-07-02T07:16:23.215Z,19.8
2018-07-02T07:17:23.241Z,19.81
2018-07-02T07:18:23.250Z,19.86
2018-07-02T07:19:23.259Z,19.89
2018-07-02T07:20:23.207Z,19.94
2018-07-02T07:21:23.233Z,19.99
2018-07-02T07:22:23.212Z,20.01
2018-07-02T07:23:23.292Z,20.07
2018-07-02T07:24:23.382Z,20.12
2018-07-02T07:25:23.402Z,20.17
2018-07-02T07:26:23.242Z,20.19
2018-07-02T07:27:23.215Z,20.21
2018-07-02T07:28:23.248Z,20.21
2018-07-02T07:29:23.259Z,20.24
2018-07-02T07:30:23.233Z,20.22
2018-07-02T07:31:23.242Z,20.17
2018-07-02T07:32:23.242Z,20.14
2018-07-02T07:33:23.227Z,20.19
2018-07-02T07:34:23.237Z,20.24
2018-07-02T07:35:23.314Z,20.32
2018-07-02T07:36:23.254Z,20.32
2018-07-02T07:37:23.619Z,20.36
2018-07-02T07:38:23.232Z,20.38
2018-07-02T07:39:23.217Z,20.42
2018-07-02T07:40:23.272Z,20.47
2018-07-02T07:41:23.262Z,20.48
2018-07-02T07:42:23.215Z,20.53
2018-07-02T07:43:23.268Z,20.52
2018-07-02T07:44:23.277Z,20.56
2018-07-02T07:45:23.271Z,20.6
2018-07-02T07:46:23.223Z,20.62
2018-07-02T07:47:23.343Z,20.63
2018-07-02T07:48:23.228Z,20.62
2018-07-02T07:49:23.359Z,20.68
2018-07-02T07:50:23.283Z,20.69
2018-07-02T07:51:23.253Z,20.74
2018-07-02T07:52:23.228Z,20.82
2018-07-02T07:53:23.309Z,20.87
2018-07-02T07:54:23.234Z,20.95
2018-07-02T07:55:23.381Z,20.97
2018-07-02T07:56:23.257Z,20.98
2018-07-02T07:57:23.299Z,20.95
2018-07-02T07:58:23.224Z,20.97
2018-07-02T07:59:23.711Z,20.99
2018-07-02T08:00:23.249Z,21.03
2018-07-02T08:01:23.350Z,21.08
2018-07-02T08:02:23.252Z,21.11
2018-07-02T08:03:23.235Z,21.12
2018-07-02T08:04:23.257Z,21.18
2018-07-02T08:05:23.281Z,21.23
2018-07-02T08:06:23.285Z,21.28
2018-07-02T08:07:23.255Z,21.3
2018-07-02T08:08:23.247Z,21.31
2018-07-02T08:09:23.268Z,21.35
2018-07-02T08:10:23.650Z,21.41
2018-07-02T08:11:23.316Z,21.4
2018-07-02T08:12:23.715Z,21.41
2018-07-02T08:13:23.348Z,21.44
2018-07-02T08:14:23.308Z,21.49
2018-07-02T08:15:23.492Z,21.51
2018-07-02T08:16:23.527Z,21.53
2018-07-02T08:17:23.295Z,21.57
2018-07-02T08:18:23.257Z,21.63
2018-07-02T08:19:23.385Z,21.68
2018-07-02T08:20:23.287Z,21.71
2018-07-02T08:21:23.284Z,21.8
2018-07-02T08:22:23.338Z,21.78
2018-07-02T08:23:23.380Z,21.82
2018-07-02T08:24:23.392Z,21.89
2018-07-02T08:25:23.396Z,21.92
2018-07-02T08:26:23.321Z,21.95
2018-07-02T08:27:23.790Z,21.97
2018-07-02T08:28:23.279Z,21.97
2018-07-02T08:29:23.316Z,22.01
2018-07-02T08:30:23.454Z,22.06
2018-07-02T08:31:23.335Z,22.1
2018-07-02T08:32:23.271Z,22.12
2018-07-02T08:33:23.292Z,22.15
2018-07-02T08:34:23.454Z,22.16
2018-07-02T08:35:23.299Z,22.19
2018-07-02T08:36:23.567Z,22.16
2018-07-02T08:37:23.318Z,22.1
2018-07-02T08:38:23.298Z,22.17
2018-07-02T08:39:23.280Z,22.18
2018-07-02T08:40:23.321Z,22.27
2018-07-02T08:41:23.728Z,22.13
2018-07-02T08:42:23.306Z,22.13
2018-07-02T08:43:23.310Z,22.18
2018-07-02T08:44:23.290Z,22.21
2018-07-02T08:45:23.279Z,22.27
2018-07-02T08:46:23.303Z,22.3
2018-07-02T08:47:23.308Z,22.3
2018-07-02T08:48:23.334Z,22.36
2018-07-02T08:49:23.298Z,22.42
2018-07-02T08:50:23.336Z,22.47
2018-07-02T08:51:23.475Z,22.49
2018-07-02T08:52:23.372Z,22.51
2018-07-02T08:53:23.302Z,22.56
2018-07-02T08:54:23.350Z,22.59
2018-07-02T08:55:23.343Z,22.66
2018-07-02T08:56:23.615Z,22.68
2018-07-02T08:57:23.335Z,22.52
2018-07-02T08:58:23.940Z,22.53
2018-07-02T08:59:23.347Z,22.56
2018-07-02T09:00:23.326Z,22.67
2018-07-02T09:01:23.464Z,22.69
2018-07-02T09:02:23.316Z,22.76
2018-07-02T09:03:23.585Z,22.81
2018-07-02T09:04:23.416Z,22.89
2018-07-02T09:05:23.464Z,22.9
2018-07-02T09:06:23.557Z,22.97
2018-07-02T09:07:23.726Z,23.04
2018-07-02T09:08:23.359Z,23.09
2018-07-02T09:09:23.372Z,23.21
2018-07-02T09:10:23.310Z,23.19
2018-07-02T09:11:23.366Z,23.27
2018-07-02T09:12:23.341Z,23.29
2018-07-02T09:13:23.368Z,23.32
2018-07-02T09:14:23.351Z,23.35
2018-07-02T09:15:23.356Z,23.37
2018-07-02T09:16:23.358Z,23.4
2018-07-02T09:17:23.539Z,23.45
2018-07-02T09:18:23.338Z,23.49
2018-07-02T09:19:23.357Z,23.56
2018-07-02T09:20:23.317Z,23.61
2018-07-02T09:21:23.404Z,23.61
2018-07-02T09:22:23.349Z,23.66
2018-07-02T09:23:23.489Z,23.69
2018-07-02T09:24:23.405Z,23.69
2018-07-02T09:25:23.374Z,23.74
2018-07-02T09:26:23.369Z,23.75
2018-07-02T09:27:23.327Z,23.77
2018-07-02T09:28:23.372Z,23.81
2018-07-02T09:29:23.584Z,23.86
2018-07-02T09:30:23.552Z,23.9
2018-07-02T09:31:23.927Z,23.99
2018-07-02T09:32:24.247Z,23.98
2018-07-02T09:33:23.459Z,24.06
2018-07-02T09:34:23.340Z,24.07
2018-07-02T09:35:23.485Z,24.11
2018-07-02T09:36:23.417Z,24.13
2018-07-02T09:37:23.362Z,24.17
2018-07-02T09:38:23.389Z,24.21
2018-07-02T09:39:24.278Z,24.22
2018-07-02T09:40:23.377Z,24.22
2018-07-02T09:41:23.474Z,24.23
2018-07-02T09:42:23.389Z,24.18
2018-07-02T09:43:23.390Z,24.18
2018-07-02T09:44:23.392Z,24.2
2018-07-02T09:45:23.372Z,24.25
2018-07-02T09:46:23.380Z,24.27
2018-07-02T09:47:23.401Z,24.27
2018-07-02T09:48:23.492Z,24.3
2018-07-02T09:49:23.877Z,24.31
2018-07-02T09:50:23.376Z,24.36
2018-07-02T09:51:23.383Z,24.4
2018-07-02T09:52:23.376Z,24.39
2018-07-02T09:53:23.394Z,24.45
2018-07-02T09:54:23.382Z,24.43
2018-07-02T09:55:23.348Z,24.45
2018-07-02T09:56:23.417Z,24.49
2018-07-02T09:57:23.435Z,24.48
2018-07-02T09:58:23.403Z,24.5
2018-07-02T09:59:23.361Z,24.55
2018-07-02T10:00:23.404Z,24.58
2018-07-02T10:01:23.382Z,24.58
2018-07-02T10:02:23.382Z,24.62
2018-07-02T10:03:23.391Z,24.62
2018-07-02T10:04:23.724Z,24.65
2018-07-02T10:05:23.581Z,24.67
2018-07-02T10:06:24.151Z,24.7
2018-07-02T10:07:23.398Z,24.74
2018-07-02T10:08:23.446Z,24.77
2018-07-02T10:09:23.416Z,24.83
2018-07-02T10:10:23.476Z,24.85
2018-07-02T10:11:23.411Z,24.86
2018-07-02T10:12:23.423Z,24.9
2018-07-02T10:13:23.420Z,24.98
2018-07-02T10:14:23.744Z,25.07
2018-07-02T10:15:23.577Z,25.08
2018-07-02T10:16:23.509Z,25.08
2018-07-02T10:17:23.439Z,25.11
2018-07-02T10:18:23.420Z,25.14
2018-07-02T10:19:23.603Z,25.19
2018-07-02T10:20:24.011Z,25.25
2018-07-02T10:21:23.476Z,25.25
2018-07-02T10:22:23.676Z,25.29
2018-07-02T10:23:23.684Z,25.3
2018-07-02T10:24:23.423Z,25.31
2018-07-02T10:25:23.452Z,25.37
2018-07-02T10:26:23.413Z,25.37
2018-07-02T10:27:23.479Z,25.39
2018-07-02T10:28:23.541Z,25.43
2018-07-02T10:29:23.838Z,25.42
2018-07-02T10:30:23.398Z,25.45
2018-07-02T10:31:25.687Z,25.44
2018-07-02T10:32:23.472Z,25.46
2018-07-02T10:33:23.437Z,25.48
2018-07-02T10:34:23.541Z,25.51
2018-07-02T10:35:23.446Z,25.54
2018-07-02T10:36:23.462Z,25.53
2018-07-02T10:37:23.412Z,25.52
2018-07-02T10:38:23.483Z,25.55
2018-07-02T10:39:23.607Z,25.57
2018-07-02T10:40:23.473Z,25.6
2018-07-02T10:41:23.455Z,25.58
2018-07-02T10:42:23.579Z,25.59
2018-07-02T10:43:23.480Z,25.64
2018-07-02T10:44:23.447Z,25.68
2018-07-02T10:45:23.543Z,25.66
2018-07-02T10:46:23.493Z,25.67
2018-07-02T10:47:23.439Z,25.64
2018-07-02T10:48:23.589Z,25.68
2018-07-02T10:49:23.469Z,25.74
2018-07-02T10:50:23.871Z,25.72
2018-07-02T10:51:23.420Z,25.7
2018-07-02T10:52:23.481Z,25.72
2018-07-02T10:53:23.467Z,25.79
2018-07-02T10:54:23.591Z,25.83
2018-07-02T10:55:23.542Z,25.85
2018-07-02T10:56:23.427Z,25.92
2018-07-02T10:57:23.439Z,25.96
2018-07-02T10:58:23.509Z,26.01
2018-07-02T10:59:23.449Z,26.04
2018-07-02T11:00:23.470Z,26.04
2018-07-02T11:01:24.058Z,25.95
2018-07-02T11:02:23.492Z,25.8
2018-07-02T11:03:23.577Z,25.88
2018-07-02T11:04:23.521Z,25.99
2018-07-02T11:05:23.455Z,26.02
2018-07-02T11:06:23.438Z,26.03
2018-07-02T11:07:23.436Z,26.02
2018-07-02T11:08:23.446Z,26.07
2018-07-02T11:09:23.464Z,26.14
2018-07-02T11:10:23.450Z,26.16
2018-07-02T11:11:23.481Z,26.15
2018-07-02T11:12:23.461Z,26.19
2018-07-02T11:13:23.473Z,26.23
2018-07-02T11:14:23.463Z,26.3
2018-07-02T11:15:23.454Z,26.32
2018-07-02T11:16:23.588Z,26.29
2018-07-02T11:17:23.477Z,26.4
2018-07-02T11:18:23.500Z,26.43
2018-07-02T11:19:23.478Z,26.47
2018-07-02T11:20:23.516Z,26.53
2018-07-02T11:21:23.503Z,26.51
2018-07-02T11:22:23.475Z,26.54
2018-07-02T11:23:23.605Z,26.6
2018-07-02T11:24:23.571Z,26.62
2018-07-02T11:25:23.524Z,26.64
2018-07-02T11:26:23.526Z,26.59
2018-07-02T11:27:23.545Z,26.57
2018-07-02T11:28:23.509Z,26.61
2018-07-02T11:29:23.478Z,26.64
2018-07-02T11:30:23.525Z,26.67
2018-07-02T11:31:23.531Z,26.67
2018-07-02T11:32:23.488Z,26.71
2018-07-02T11:33:23.614Z,26.68
2018-07-02T11:34:23.487Z,26.72
2018-07-02T11:35:23.532Z,26.77
2018-07-02T11:36:23.474Z,26.8
2018-07-02T11:37:24.011Z,26.86
2018-07-02T11:38:23.522Z,26.91
2018-07-02T11:39:23.527Z,26.94
2018-07-02T11:40:23.555Z,26.99
2018-07-02T11:41:23.527Z,27.02
2018-07-02T11:42:23.613Z,26.95
2018-07-02T11:43:23.474Z,26.9
2018-07-02T11:44:23.519Z,26.89
2018-07-02T11:45:23.560Z,26.94
2018-07-02T11:46:23.623Z,26.96
2018-07-02T11:47:23.700Z,27.02
2018-07-02T11:48:23.506Z,27.11
2018-07-02T11:49:23.575Z,27.1
2018-07-02T11:50:23.524Z,27.14
2018-07-02T11:51:23.554Z,27.12
2018-07-02T11:52:23.580Z,27.21
2018-07-02T11:53:23.545Z,27.13
2018-07-02T11:54:23.559Z,27.14
2018-07-02T11:55:23.576Z,26.94
2018-07-02T11:56:23.617Z,26.97
2018-07-02T11:57:24.061Z,26.92
2018-07-02T11:58:23.631Z,26.83
2018-07-02T11:59:23.665Z,26.9
2018-07-02T12:00:23.551Z,26.92
2018-07-02T12:01:23.606Z,26.99
2018-07-02T12:02:23.698Z,27.03
2018-07-02T12:03:23.574Z,27.07
2018-07-02T12:04:23.571Z,27.12
2018-07-02T12:05:23.617Z,27.21
2018-07-02T12:06:23.648Z,27.25
2018-07-02T12:07:23.595Z,27.36
2018-07-02T12:08:23.666Z,27.44
2018-07-02T12:09:23.713Z,27.48
2018-07-02T12:10:23.759Z,27.5
2018-07-02T12:11:23.554Z,27.53
2018-07-02T12:12:23.672Z,27.57
2018-07-02T12:13:23.739Z,27.58
2018-07-02T12:14:23.723Z,27.61
2018-07-02T12:15:24.318Z,27.58
2018-07-02T12:16:23.621Z,27.66
2018-07-02T12:17:23.666Z,27.69
2018-07-02T12:18:24.291Z,27.67
2018-07-02T12:19:23.602Z,27.62
2018-07-02T12:20:23.622Z,27.46
2018-07-02T12:21:23.597Z,27.59
2018-07-02T12:22:23.601Z,27.65
2018-07-02T12:23:23.676Z,27.72
2018-07-02T12:24:23.603Z,27.77
2018-07-02T12:25:23.597Z,27.79
2018-07-02T12:26:23.628Z,27.84
2018-07-02T12:27:24.585Z,27.77
2018-07-02T12:28:24.183Z,27.8
2018-07-02T12:29:25.112Z,27.83
2018-07-02T12:30:26.620Z,27.87
2018-07-02T12:31:23.687Z,27.93
2018-07-02T12:32:23.594Z,27.95
2018-07-02T12:33:25.610Z,28
2018-07-02T12:34:23.645Z,28.03
2018-07-02T12:35:24.401Z,28.04
2018-07-02T12:36:23.650Z,28.09
2018-07-02T12:37:23.808Z,28.11
2018-07-02T12:38:23.609Z,28.08
2018-07-02T12:39:23.565Z,28.09
2018-07-02T12:40:24.475Z,28.12
2018-07-02T12:41:23.680Z,27.99
2018-07-02T12:42:23.661Z,27.84
2018-07-02T12:43:24.895Z,27.83
2018-07-02T12:44:23.606Z,27.85
2018-07-02T12:45:23.597Z,27.92
2018-07-02T12:46:23.667Z,27.91
2018-07-02T12:47:23.619Z,27.87
2018-07-02T12:48:23.624Z,27.95
2018-07-02T12:49:24.124Z,28.05
2018-07-02T12:50:23.631Z,28.12
2018-07-02T12:51:23.620Z,28.04
2018-07-02T12:52:23.551Z,27.98
2018-07-02T12:53:23.568Z,28.01
2018-07-02T12:54:25.119Z,28.01
2018-07-02T12:55:23.647Z,28.03